Time;durP1;ratioP1;P1;durP2;ratioP2;P2;SDS_P1;SDS_P2;PMS_P1;PMS_P2;Temp;Humidity;BMP_temperature;BMP_pressure;BME280_temperature;BME280_humidity;BME280_pressure;Samples;Min_cycle;Max_cycle;Signal;HPM_P1;HPM_P2
2021/09/05 00:01:54;;;;;;;6.73;3.27;;;;;;;;;;5109645;28;20030;-60
2021/09/05 00:04:20;;;;;;;5.43;3.80;;;;;;;;;;5088733;28;20407;-60
2021/09/05 00:06:47;;;;;;;5.77;3.80;;;;;;;;;;5091893;28;20024;-60
2021/09/05 00:09:14;;;;;;;6.03;3.70;;;;;;;;;;5094762;28;20031;-60
2021/09/05 00:11:40;;;;;;;4.13;3.10;;;;;;;;;;5094667;28;20081;-60
2021/09/05 00:14:07;;;;;;;7.53;3.27;;;;;;;;;;5111558;28;20489;-60
2021/09/05 00:16:34;;;;;;;5.57;3.23;;;;;;;;;;5114948;28;20470;-60
2021/09/05 00:19:01;;;;;;;8.13;3.97;;;;;;;;;;5094669;28;20470;-60
2021/09/05 00:21:28;;;;;;;5.47;3.80;;;;;;;;;;5089153;28;20032;-60
2021/09/05 00:23:54;;;;;;;8.47;3.87;;;;;;;;;;5089172;28;20020;-60
2021/09/05 00:26:21;;;;;;;5.57;3.20;;;;;;;;;;5089087;28;20031;-60
2021/09/05 00:28:48;;;;;;;4.83;2.97;;;;;;;;;;5105223;28;20027;-60
2021/09/05 00:31:14;;;;;;;4.60;3.30;;;;;;;;;;5114340;28;20381;-60
2021/09/05 00:33:41;;;;;;;6.77;4.30;;;;;;;;;;5114815;28;20411;-60
2021/09/05 00:36:07;;;;;;;9.00;4.40;;;;;;;;;;5114583;28;20482;-60
2021/09/05 00:38:34;;;;;;;10.20;4.50;;;;;;;;;;5114617;28;20024;-60
2021/09/05 00:41:01;;;;;;;4.97;3.83;;;;;;;;;;5094165;28;20043;-60
2021/09/05 00:43:27;;;;;;;7.43;3.93;;;;;;;;;;5088632;28;20403;-60
2021/09/05 00:45:54;;;;;;;9.53;5.43;;;;;;;;;;5088786;28;20088;-60
2021/09/05 00:48:21;;;;;;;6.60;4.67;;;;;;;;;;5088335;28;20091;-60
2021/09/05 00:50:47;;;;;;;8.70;5.77;;;;;;;;;;5088909;28;20024;-60
2021/09/05 00:53:14;;;;;;;9.77;4.33;;;;;;;;;;5112519;28;20452;-60
2021/09/05 00:55:41;;;;;;;8.57;5.10;;;;;;;;;;5102950;28;20024;-60
2021/09/05 00:58:08;;;;;;;17.87;4.77;;;;;;;;;;5093730;28;20020;-60
2021/09/05 01:00:35;;;;;;;12.50;3.83;;;;;;;;;;5093810;28;20050;-61
2021/09/05 01:03:03;;;;;;;5.93;2.93;;;;;;;;;;5092960;28;20490;-60
2021/09/05 01:05:30;;;;;;;8.40;3.27;;;;;;;;;;5087949;28;20048;-60
2021/09/05 01:07:57;;;;;;;8.87;3.40;;;;;;;;;;5088208;28;20102;-61
2021/09/05 01:10:24;;;;;;;5.70;2.77;;;;;;;;;;5088289;28;20031;-61
2021/09/05 01:12:51;;;;;;;4.53;2.70;;;;;;;;;;5094805;28;20027;-60
2021/09/05 01:15:17;;;;;;;5.13;2.30;;;;;;;;;;5098652;28;20024;-62
2021/09/05 01:17:44;;;;;;;4.13;2.47;;;;;;;;;;5092529;28;20020;-60
2021/09/05 01:20:11;;;;;;;3.63;1.83;;;;;;;;;;5093535;28;20031;-60
2021/09/05 01:22:37;;;;;;;10.87;3.23;;;;;;;;;;5093274;28;20024;-61
2021/09/05 01:25:04;;;;;;;13.27;9.17;;;;;;;;;;5096648;28;20077;-63
2021/09/05 01:27:31;;;;;;;5.83;3.30;;;;;;;;;;5088025;28;20108;-63
2021/09/05 01:29:58;;;;;;;6.80;2.80;;;;;;;;;;5087936;28;20099;-63
2021/09/05 01:32:24;;;;;;;7.23;2.90;;;;;;;;;;5087879;28;20459;-62
2021/09/05 01:34:51;;;;;;;7.47;2.90;;;;;;;;;;5087611;28;20028;-63
2021/09/05 01:37:18;;;;;;;7.83;3.50;;;;;;;;;;5092218;28;20032;-63
2021/09/05 01:39:44;;;;;;;5.40;3.10;;;;;;;;;;5107168;28;20084;-63
2021/09/05 01:42:11;;;;;;;9.40;3.67;;;;;;;;;;5113299;28;20467;-60
2021/09/05 01:44:38;;;;;;;15.63;4.37;;;;;;;;;;5113338;28;20031;-60
2021/09/05 01:47:04;;;;;;;14.93;3.67;;;;;;;;;;5113174;28;20515;-60
2021/09/05 01:49:31;;;;;;;7.80;4.30;;;;;;;;;;5096425;28;20028;-61
2021/09/05 01:51:58;;;;;;;8.00;4.73;;;;;;;;;;5087440;28;20767;-60
2021/09/05 01:54:24;;;;;;;8.43;4.10;;;;;;;;;;5097777;28;20031;-60
2021/09/05 01:56:51;;;;;;;6.60;3.90;;;;;;;;;;5088639;28;20500;-60
2021/09/05 01:59:17;;;;;;;5.93;3.47;;;;;;;;;;5090888;28;20432;-60
2021/09/05 02:01:44;;;;;;;6.60;3.70;;;;;;;;;;5092950;28;20032;-62
2021/09/05 02:04:11;;;;;;;6.37;3.83;;;;;;;;;;5092649;28;20016;-62
2021/09/05 02:06:37;;;;;;;5.73;3.27;;;;;;;;;;5092464;28;20047;-62
2021/09/05 02:09:04;;;;;;;5.80;3.40;;;;;;;;;;5092569;28;20031;-63
2021/09/05 02:11:31;;;;;;;8.93;4.60;;;;;;;;;;5088661;28;20048;-62
2021/09/05 02:13:57;;;;;;;8.43;4.77;;;;;;;;;;5087283;28;20024;-63
2021/09/05 02:16:24;;;;;;;10.87;4.83;;;;;;;;;;5087003;28;20096;-63
2021/09/05 02:18:51;;;;;;;10.53;4.47;;;;;;;;;;5087490;28;20123;-63
2021/09/05 02:21:18;;;;;;;7.87;4.07;;;;;;;;;;5090063;28;20016;-60
2021/09/05 02:23:44;;;;;;;9.30;6.13;;;;;;;;;;5092394;28;20027;-60
2021/09/05 02:26:11;;;;;;;8.53;5.50;;;;;;;;;;5093392;28;20038;-62
2021/09/05 02:28:38;;;;;;;10.57;5.03;;;;;;;;;;5102975;28;20099;-62
2021/09/05 02:31:04;;;;;;;6.57;4.50;;;;;;;;;;5092451;28;20020;-62
2021/09/05 02:33:34;;;;;;;8.47;5.20;;;;;;;;;;5088659;28;20027;-62
2021/09/05 02:36:01;;;;;;;12.50;6.27;;;;;;;;;;5086853;28;20398;-62
2021/09/05 02:38:27;;;;;;;8.37;6.00;;;;;;;;;;5086770;28;20048;-61
2021/09/05 02:40:55;;;;;;;10.90;6.50;;;;;;;;;;5086985;28;20031;-61
2021/09/05 02:43:22;;;;;;;9.80;5.93;;;;;;;;;;5089354;28;20036;-59
2021/09/05 02:45:48;;;;;;;8.03;5.33;;;;;;;;;;5091607;28;20020;-59
2021/09/05 02:48:15;;;;;;;7.87;5.27;;;;;;;;;;5091295;28;20107;-59
2021/09/05 02:50:42;;;;;;;12.50;5.33;;;;;;;;;;5091440;28;20055;-59
2021/09/05 02:53:09;;;;;;;7.10;4.90;;;;;;;;;;5081031;28;20099;-59
2021/09/05 02:55:36;;;;;;;6.47;4.10;;;;;;;;;;5089462;28;20028;-59
2021/09/05 02:58:02;;;;;;;11.70;4.83;;;;;;;;;;5086851;28;20047;-59
2021/09/05 03:00:29;;;;;;;8.90;4.80;;;;;;;;;;5086965;28;20520;-59
2021/09/05 03:02:56;;;;;;;8.83;4.60;;;;;;;;;;5086905;28;20078;-62
2021/09/05 03:05:22;;;;;;;11.50;4.93;;;;;;;;;;5088577;28;20021;-63
2021/09/05 03:07:49;;;;;;;12.47;7.20;;;;;;;;;;5091842;28;20042;-63
2021/09/05 03:10:16;;;;;;;12.27;8.20;;;;;;;;;;5092220;28;20089;-62
2021/09/05 03:12:42;;;;;;;10.20;6.17;;;;;;;;;;5091859;28;20027;-62
2021/09/05 03:15:09;;;;;;;9.10;6.30;;;;;;;;;;5091951;28;20031;-59
2021/09/05 03:17:36;;;;;;;9.67;6.13;;;;;;;;;;5089956;28;20457;-62
2021/09/05 03:20:03;;;;;;;11.67;6.93;;;;;;;;;;5065980;28;20036;-62
2021/09/05 03:22:29;;;;;;;8.73;6.03;;;;;;;;;;5066534;28;20029;-62
2021/09/05 03:24:56;;;;;;;16.17;5.73;;;;;;;;;;5066496;28;20036;-61
2021/09/05 03:27:23;;;;;;;9.60;5.10;;;;;;;;;;5067557;28;20032;-61
2021/09/05 03:29:49;;;;;;;8.27;5.63;;;;;;;;;;5071568;28;20017;-63
2021/09/05 03:32:16;;;;;;;8.57;6.00;;;;;;;;;;5111349;28;20478;-61
2021/09/05 03:34:43;;;;;;;11.30;5.97;;;;;;;;;;5112043;28;20023;-62
2021/09/05 03:37:09;;;;;;;12.93;6.30;;;;;;;;;;5111654;28;20164;-62
2021/09/05 03:39:36;;;;;;;13.03;6.87;;;;;;;;;;5111991;28;20039;-59
2021/09/05 03:42:03;;;;;;;12.43;7.00;;;;;;;;;;5110337;28;20023;-59
2021/09/05 03:44:29;;;;;;;11.07;6.17;;;;;;;;;;5103656;28;20107;-59
2021/09/05 03:46:56;;;;;;;12.57;6.67;;;;;;;;;;5090200;28;20053;-60
2021/09/05 03:49:22;;;;;;;13.83;7.43;;;;;;;;;;5089954;28;20031;-59
2021/09/05 03:51:49;;;;;;;11.37;7.40;;;;;;;;;;5094893;28;20518;-59
2021/09/05 03:54:16;;;;;;;10.97;6.80;;;;;;;;;;5094682;28;20028;-59
2021/09/05 03:56:42;;;;;;;12.13;7.40;;;;;;;;;;5095060;28;20038;-59
2021/09/05 03:59:09;;;;;;;15.10;7.30;;;;;;;;;;5102798;28;20424;-59
2021/09/05 04:01:36;;;;;;;10.17;5.60;;;;;;;;;;5115386;28;20374;-59
2021/09/05 04:04:02;;;;;;;10.27;6.27;;;;;;;;;;5109986;28;20028;-59
2021/09/05 04:06:29;;;;;;;11.97;6.30;;;;;;;;;;5109986;28;20381;-59
2021/09/05 04:08:56;;;;;;;10.87;5.83;;;;;;;;;;5109687;28;20038;-59
2021/09/05 04:11:22;;;;;;;10.40;5.77;;;;;;;;;;5109489;28;20026;-58
2021/09/05 04:13:49;;;;;;;9.30;6.07;;;;;;;;;;5101731;28;20136;-58
2021/09/05 04:16:16;;;;;;;9.67;6.43;;;;;;;;;;5094375;28;20521;-58
2021/09/05 04:18:43;;;;;;;12.20;6.50;;;;;;;;;;5094780;28;20035;-58
2021/09/05 04:21:09;;;;;;;7.90;5.37;;;;;;;;;;5094575;28;20111;-58
2021/09/05 04:23:36;;;;;;;11.30;6.33;;;;;;;;;;5094578;28;20059;-58
2021/09/05 04:26:03;;;;;;;9.73;6.00;;;;;;;;;;5089797;28;20052;-59
2021/09/05 04:28:29;;;;;;;9.33;5.60;;;;;;;;;;5107044;28;20039;-59
2021/09/05 04:30:56;;;;;;;12.00;6.23;;;;;;;;;;5107529;28;20046;-60
2021/09/05 04:33:23;;;;;;;10.80;5.33;;;;;;;;;;5109415;28;20087;-58
2021/09/05 04:35:49;;;;;;;8.87;5.17;;;;;;;;;;5113098;28;20030;-58
2021/09/05 04:38:16;;;;;;;8.27;5.47;;;;;;;;;;5114440;28;20067;-58
2021/09/05 04:40:42;;;;;;;9.73;5.67;;;;;;;;;;5114555;28;20043;-58
2021/09/05 04:43:09;;;;;;;9.27;5.20;;;;;;;;;;5097832;28;20490;-59
2021/09/05 04:45:36;;;;;;;9.10;5.13;;;;;;;;;;5107350;28;20028;-58
2021/09/05 04:48:02;;;;;;;11.37;5.50;;;;;;;;;;5110642;28;20395;-58
2021/09/05 04:50:29;;;;;;;8.47;5.20;;;;;;;;;;5108699;28;20028;-60
2021/09/05 04:52:56;;;;;;;8.47;5.47;;;;;;;;;;5109309;28;20058;-59
2021/09/05 04:55:22;;;;;;;9.57;5.73;;;;;;;;;;5109027;28;20016;-58
2021/09/05 04:57:49;;;;;;;11.17;6.17;;;;;;;;;;5098275;28;20529;-59
2021/09/05 05:00:16;;;;;;;10.23;5.63;;;;;;;;;;5104568;28;20501;-59
2021/09/05 05:02:42;;;;;;;8.40;4.90;;;;;;;;;;5114270;28;20024;-58
2021/09/05 05:05:09;;;;;;;7.67;4.23;;;;;;;;;;5114093;28;20020;-58
2021/09/05 05:07:36;;;;;;;7.43;4.87;;;;;;;;;;5113859;28;20478;-58
2021/09/05 05:10:03;;;;;;;7.63;5.20;;;;;;;;;;5111034;28;20019;-58
2021/09/05 05:12:29;;;;;;;10.20;5.33;;;;;;;;;;5097476;28;20035;-58
2021/09/05 05:14:56;;;;;;;8.40;5.40;;;;;;;;;;5088318;28;20030;-59
2021/09/05 05:17:23;;;;;;;12.17;5.77;;;;;;;;;;5087959;28;20040;-58
2021/09/05 05:19:49;;;;;;;9.23;5.13;;;;;;;;;;5090493;28;20173;-58
2021/09/05 05:22:17;;;;;;;13.23;5.80;;;;;;;;;;5093423;28;20099;-58
2021/09/05 05:24:44;;;;;;;10.57;6.20;;;;;;;;;;5092922;28;20419;-58
2021/09/05 05:27:10;;;;;;;7.97;5.43;;;;;;;;;;5105576;28;20416;-58
2021/09/05 05:29:37;;;;;;;8.37;4.47;;;;;;;;;;5113646;28;20027;-58
2021/09/05 05:32:04;;;;;;;6.70;4.93;;;;;;;;;;5111134;28;20547;-58
2021/09/05 05:34:30;;;;;;;7.33;4.40;;;;;;;;;;5108060;28;20063;-58
2021/09/05 05:37:01;;;;;;;7.67;5.20;;;;;;;;;;5108237;28;20431;-58
2021/09/05 05:39:28;;;;;;;9.67;5.10;;;;;;;;;;5108327;28;20043;-58
2021/09/05 05:41:55;;;;;;;9.10;5.43;;;;;;;;;;5091597;28;20077;-58
2021/09/05 05:44:21;;;;;;;9.33;4.97;;;;;;;;;;5093157;28;20042;-59
2021/09/05 05:46:48;;;;;;;7.80;5.07;;;;;;;;;;5093027;28;20474;-58
2021/09/05 05:49:15;;;;;;;9.73;4.90;;;;;;;;;;5092948;28;20028;-58
2021/09/05 05:51:41;;;;;;;8.77;4.40;;;;;;;;;;5092754;28;20024;-58
2021/09/05 05:54:08;;;;;;;7.20;4.50;;;;;;;;;;5094041;28;20437;-58
2021/09/05 05:56:34;;;;;;;7.80;4.43;;;;;;;;;;5107877;28;20028;-58
2021/09/05 05:59:01;;;;;;;6.37;4.13;;;;;;;;;;5107825;28;20052;-58
2021/09/05 06:01:28;;;;;;;7.57;5.00;;;;;;;;;;5107977;28;20080;-58
2021/09/05 06:03:54;;;;;;;7.97;5.80;;;;;;;;;;5107911;28;20424;-58
2021/09/05 06:06:21;;;;;;;7.93;5.60;;;;;;;;;;5112536;28;20020;-58
2021/09/05 06:08:48;;;;;;;9.07;5.37;;;;;;;;;;5097730;28;20051;-58
2021/09/05 06:11:14;;;;;;;9.13;5.13;;;;;;;;;;5092571;28;20059;-58
2021/09/05 06:13:41;;;;;;;12.07;4.60;;;;;;;;;;5092690;28;20159;-59
2021/09/05 06:16:08;;;;;;;12.37;5.13;;;;;;;;;;5091234;28;20103;-58
2021/09/05 06:18:34;;;;;;;11.07;4.97;;;;;;;;;;5087127;28;20076;-59
2021/09/05 06:21:02;;;;;;;9.03;4.77;;;;;;;;;;5101496;28;20027;-58
2021/09/05 06:23:29;;;;;;;7.30;4.73;;;;;;;;;;5107196;28;20040;-59
2021/09/05 06:25:56;;;;;;;6.83;4.60;;;;;;;;;;5107596;28;20027;-58
2021/09/05 06:28:22;;;;;;;8.90;5.13;;;;;;;;;;5112704;28;20023;-59
2021/09/05 06:30:49;;;;;;;9.33;6.17;;;;;;;;;;5112708;28;20023;-58
2021/09/05 06:33:16;;;;;;;11.00;4.73;;;;;;;;;;5112504;28;20505;-59
2021/09/05 06:35:42;;;;;;;10.07;4.87;;;;;;;;;;5096135;28;20031;-58
2021/09/05 06:38:09;;;;;;;7.60;4.83;;;;;;;;;;5092026;28;20386;-58
2021/09/05 06:40:35;;;;;;;9.30;4.77;;;;;;;;;;5086904;28;20438;-58
2021/09/05 06:43:02;;;;;;;11.20;6.03;;;;;;;;;;5087237;28;20032;-58
2021/09/05 06:45:29;;;;;;;6.47;4.80;;;;;;;;;;5087131;28;20493;-58
2021/09/05 06:47:55;;;;;;;9.87;5.20;;;;;;;;;;5087105;28;20536;-61
2021/09/05 06:50:22;;;;;;;10.10;4.47;;;;;;;;;;5111570;28;20093;-60
2021/09/05 06:52:49;;;;;;;8.37;5.07;;;;;;;;;;5112476;28;20028;-61
2021/09/05 06:55:15;;;;;;;8.33;4.70;;;;;;;;;;5112661;28;20026;-61
2021/09/05 06:57:42;;;;;;;6.13;4.40;;;;;;;;;;5111909;28;20478;-58
2021/09/05 07:00:09;;;;;;;7.37;4.50;;;;;;;;;;5112484;28;20107;-58
2021/09/05 07:02:35;;;;;;;12.87;4.87;;;;;;;;;;5102003;28;20089;-58
2021/09/05 07:05:02;;;;;;;7.93;5.10;;;;;;;;;;5086905;28;20089;-58
2021/09/05 07:07:29;;;;;;;7.23;3.90;;;;;;;;;;5086655;28;20032;-58
2021/09/05 07:09:55;;;;;;;7.03;3.43;;;;;;;;;;5086915;28;20066;-58
2021/09/05 07:12:22;;;;;;;5.93;3.33;;;;;;;;;;5091254;28;20375;-58
2021/09/05 07:14:49;;;;;;;5.60;3.60;;;;;;;;;;5092599;28;20028;-58
2021/09/05 07:17:15;;;;;;;6.53;4.33;;;;;;;;;;5101810;28;20118;-59
2021/09/05 07:19:42;;;;;;;6.77;3.80;;;;;;;;;;5116228;28;20428;-58
2021/09/05 07:22:09;;;;;;;14.23;4.20;;;;;;;;;;5115931;28;20039;-58
2021/09/05 07:24:35;;;;;;;9.10;4.47;;;;;;;;;;5111722;28;20016;-59
2021/09/05 07:27:02;;;;;;;8.10;3.33;;;;;;;;;;5110782;28;20020;-58
2021/09/05 07:29:29;;;;;;;6.07;4.20;;;;;;;;;;5110877;28;20028;-60
2021/09/05 07:31:55;;;;;;;7.83;3.80;;;;;;;;;;5100421;28;20427;-58
2021/09/05 07:34:22;;;;;;;5.03;2.90;;;;;;;;;;5093466;28;20074;-58
2021/09/05 07:36:48;;;;;;;8.77;3.60;;;;;;;;;;5095599;28;20070;-58
2021/09/05 07:39:15;;;;;;;8.83;3.80;;;;;;;;;;5095378;28;20036;-58
2021/09/05 07:41:42;;;;;;;5.63;3.13;;;;;;;;;;5095231;28;20493;-58
2021/09/05 07:44:08;;;;;;;10.53;3.27;;;;;;;;;;5095218;28;20016;-58
2021/09/05 07:46:35;;;;;;;8.70;3.97;;;;;;;;;;5103762;28;20027;-58
2021/09/05 07:49:02;;;;;;;9.13;3.23;;;;;;;;;;5110472;28;20484;-58
2021/09/05 07:51:29;;;;;;;7.43;3.10;;;;;;;;;;5110329;28;20552;-58
2021/09/05 07:53:55;;;;;;;6.87;2.90;;;;;;;;;;5110432;28;20020;-58
2021/09/05 07:56:22;;;;;;;4.80;2.83;;;;;;;;;;5112990;28;20039;-59
2021/09/05 07:58:49;;;;;;;3.73;2.60;;;;;;;;;;5115224;28;20103;-58
2021/09/05 08:01:15;;;;;;;4.83;2.90;;;;;;;;;;5097711;28;20028;-58
2021/09/05 08:03:42;;;;;;;8.47;3.83;;;;;;;;;;5094789;28;20103;-60
2021/09/05 08:06:09;;;;;;;6.97;3.40;;;;;;;;;;5094720;28;20048;-59
2021/09/05 08:08:36;;;;;;;5.60;3.30;;;;;;;;;;5091839;28;20042;-58
2021/09/05 08:11:04;;;;;;;5.80;3.83;;;;;;;;;;5089734;28;20078;-58
2021/09/05 08:13:31;;;;;;;7.57;3.20;;;;;;;;;;5089664;28;20030;-58
2021/09/05 08:16:00;;;;;;;7.70;3.50;;;;;;;;;;5109664;28;20035;-58
2021/09/05 08:18:28;;;;;;;5.43;4.00;;;;;;;;;;5112073;28;20023;-58
2021/09/05 08:20:56;;;;;;;7.43;3.67;;;;;;;;;;5114914;28;20052;-58
2021/09/05 08:23:22;;;;;;;7.83;4.23;;;;;;;;;;5114807;28;20037;-58
2021/09/05 08:25:49;;;;;;;5.23;3.47;;;;;;;;;;5114199;28;20023;-58
2021/09/05 08:28:16;;;;;;;8.00;3.97;;;;;;;;;;5106424;28;20020;-58
2021/09/05 08:30:43;;;;;;;8.13;3.90;;;;;;;;;;5091953;28;20104;-58
2021/09/05 08:33:10;;;;;;;10.63;4.10;;;;;;;;;;5088730;28;20077;-58
2021/09/05 08:35:37;;;;;;;7.17;4.33;;;;;;;;;;5088829;28;20025;-58
2021/09/05 08:38:04;;;;;;;5.23;3.23;;;;;;;;;;5088977;28;20028;-58
2021/09/05 08:40:31;;;;;;;7.83;3.80;;;;;;;;;;5090701;28;20040;-58
2021/09/05 08:42:58;;;;;;;9.30;4.37;;;;;;;;;;5103547;28;20028;-58
2021/09/05 08:45:24;;;;;;;6.17;3.30;;;;;;;;;;5114279;28;20019;-58
2021/09/05 08:47:51;;;;;;;6.07;3.27;;;;;;;;;;5114569;28;20462;-58
2021/09/05 08:50:18;;;;;;;10.90;3.87;;;;;;;;;;5114165;28;20024;-58
2021/09/05 08:52:45;;;;;;;5.43;4.20;;;;;;;;;;5112108;28;20027;-59
2021/09/05 08:55:11;;;;;;;6.77;3.70;;;;;;;;;;5109032;28;20019;-58
2021/09/05 08:57:38;;;;;;;7.03;3.73;;;;;;;;;;5107285;28;20039;-58
2021/09/05 09:00:05;;;;;;;5.33;3.53;;;;;;;;;;5109014;28;20034;-58
2021/09/05 09:02:48;;;;;;;8.00;3.80;;;;;;;;;;5110502;28;20069;-58
2021/09/05 09:05:15;;;;;;;5.87;3.80;;;;;;;;;;5111887;28;20077;-58
2021/09/05 09:07:49;;;;;;;8.63;3.73;;;;;;;;;;5113919;28;20470;-58
2021/09/05 09:10:16;;;;;;;11.93;4.60;;;;;;;;;;5114126;28;20494;-58
2021/09/05 09:12:48;;;;;;;10.90;4.90;;;;;;;;;;5094435;28;20036;-58
2021/09/05 09:15:17;;;;;;;8.90;5.10;;;;;;;;;;5091391;28;20024;-58
2021/09/05 09:17:44;;;;;;;7.70;4.47;;;;;;;;;;5087946;28;20048;-58
2021/09/05 09:20:11;;;;;;;8.00;5.40;;;;;;;;;;5088230;28;20034;-58
2021/09/05 09:22:37;;;;;;;6.80;4.73;;;;;;;;;;5088615;28;20375;-58
2021/09/05 09:25:07;;;;;;;8.03;5.33;;;;;;;;;;5096134;28;20028;-58
2021/09/05 09:27:34;;;;;;;6.13;4.00;;;;;;;;;;5113725;28;20023;-58
2021/09/05 09:30:00;;;;;;;9.40;4.27;;;;;;;;;;5113724;28;20019;-58
2021/09/05 09:32:27;;;;;;;6.23;4.23;;;;;;;;;;5111785;28;20024;-58
2021/09/05 09:34:54;;;;;;;7.30;4.47;;;;;;;;;;5093122;28;20035;-58
2021/09/05 09:37:22;;;;;;;5.90;3.67;;;;;;;;;;5090570;28;20032;-58
2021/09/05 09:39:49;;;;;;;10.30;3.53;;;;;;;;;;5088057;28;20110;-58
2021/09/05 09:42:31;;;;;;;6.43;3.63;;;;;;;;;;5088113;28;20089;-59
2021/09/05 09:44:58;;;;;;;5.30;3.73;;;;;;;;;;5091359;28;20023;-58
2021/09/05 09:47:25;;;;;;;7.07;3.83;;;;;;;;;;5109565;28;20016;-58
2021/09/05 09:49:52;;;;;;;6.20;3.87;;;;;;;;;;5113453;28;20023;-58
2021/09/05 09:52:19;;;;;;;8.87;3.90;;;;;;;;;;5113517;28;20028;-58
2021/09/05 09:54:46;;;;;;;4.80;3.37;;;;;;;;;;5113324;28;20502;-58
2021/09/05 09:57:13;;;;;;;6.73;3.57;;;;;;;;;;5113006;28;20084;-58
2021/09/05 09:59:40;;;;;;;5.13;3.00;;;;;;;;;;5101606;28;20028;-58
2021/09/05 10:02:07;;;;;;;7.17;4.03;;;;;;;;;;5087694;28;20031;-58
2021/09/05 10:04:33;;;;;;;6.30;3.90;;;;;;;;;;5087848;28;20600;-58
2021/09/05 10:07:01;;;;;;;6.07;4.30;;;;;;;;;;5088392;28;20024;-58
2021/09/05 10:09:29;;;;;;;8.87;4.67;;;;;;;;;;5088944;28;20034;-58
2021/09/05 10:11:56;;;;;;;11.20;5.43;;;;;;;;;;5092681;28;20378;-58
2021/09/05 10:14:23;;;;;;;7.33;4.40;;;;;;;;;;5107413;28;20016;-58
2021/09/05 10:16:50;;;;;;;8.40;4.50;;;;;;;;;;5112647;28;20034;-58
2021/09/05 10:19:16;;;;;;;9.03;5.57;;;;;;;;;;5112766;28;20103;-58
2021/09/05 10:21:43;;;;;;;8.40;4.00;;;;;;;;;;5111261;28;20114;-58
2021/09/05 10:24:14;;;;;;;5.77;3.90;;;;;;;;;;5107939;28;20020;-58
2021/09/05 10:26:59;;;;;;;6.37;2.73;;;;;;;;;;5107706;28;20404;-58
2021/09/05 10:29:25;;;;;;;7.40;2.53;;;;;;;;;;5066930;28;20089;-59
2021/09/05 10:31:52;;;;;;;14.87;2.93;;;;;;;;;;5068473;28;20744;-58
2021/09/05 10:34:36;;;;;;;6.93;2.43;;;;;;;;;;5072462;28;20227;-59
2021/09/05 10:37:12;;;;;;;7.97;2.77;;;;;;;;;;5072215;28;20036;-58
2021/09/05 10:39:57;;;;;;;3.93;2.40;;;;;;;;;;5072141;28;20086;-59
2021/09/05 10:42:24;;;;;;;5.05;2.30;;;;;;;;;;5089028;28;20022;-58
2021/09/05 10:45:08;;;;;;;9.93;3.17;;;;;;;;;;5109643;28;20481;-58
2021/09/05 10:47:38;;;;;;;4.87;2.87;;;;;;;;;;5107586;28;20530;-59
2021/09/05 10:50:07;;;;;;;6.27;2.70;;;;;;;;;;5111080;28;20051;-58
2021/09/05 10:52:47;;;;;;;13.03;3.37;;;;;;;;;;5111903;28;20031;-58
2021/09/05 10:55:15;;;;;;;6.63;2.30;;;;;;;;;;5115265;28;20110;-58
2021/09/05 10:57:41;;;;;;;5.23;2.30;;;;;;;;;;5100716;28;20131;-58
2021/09/05 11:00:09;;;;;;;4.10;1.90;;;;;;;;;;5095900;28;20035;-58
2021/09/05 11:02:53;;;;;;;8.07;3.07;;;;;;;;;;5096283;28;20024;-59
2021/09/05 11:05:20;;;;;;;9.15;2.25;;;;;;;;;;5096268;28;20099;-58
2021/09/05 11:07:47;;;;;;;4.30;2.17;;;;;;;;;;5091435;28;20028;-58
2021/09/05 11:10:33;;;;;;;6.23;1.83;;;;;;;;;;5094233;28;20024;-58
2021/09/05 11:13:00;;;;;;;3.57;2.10;;;;;;;;;;5111337;28;20529;-58
2021/09/05 11:15:27;;;;;;;3.33;2.03;;;;;;;;;;5111181;28;20106;-58
2021/09/05 11:17:55;;;;;;;4.70;2.13;;;;;;;;;;5115490;28;20074;-58
2021/09/05 11:20:21;;;;;;;2.70;1.60;;;;;;;;;;5116102;28;20537;-59
2021/09/05 11:22:49;;;;;;;7.40;2.10;;;;;;;;;;5116150;28;20063;-58
2021/09/05 11:25:23;;;;;;;3.20;1.73;;;;;;;;;;5104548;28;20047;-58
2021/09/05 11:27:51;;;;;;;5.55;1.85;;;;;;;;;;5095626;28;20080;-58
2021/09/05 11:30:18;;;;;;;12.63;2.30;;;;;;;;;;5090644;28;20028;-58
2021/09/05 11:32:45;;;;;;;3.60;2.30;;;;;;;;;;5090803;28;20028;-58
2021/09/05 11:35:12;;;;;;;5.33;1.77;;;;;;;;;;5090678;28;20486;-58
2021/09/05 11:37:40;;;;;;;3.87;2.20;;;;;;;;;;5090470;28;20028;-58
2021/09/05 11:40:10;;;;;;;4.80;2.00;;;;;;;;;;5112937;28;20485;-58
2021/09/05 11:42:38;;;;;;;3.97;1.60;;;;;;;;;;5115923;28;20024;-58
2021/09/05 11:45:09;;;;;;;4.07;1.77;;;;;;;;;;5115859;28;20908;-58
2021/09/05 11:47:36;;;;;;;2.37;1.50;;;;;;;;;;5116608;28;20020;-58
2021/09/05 11:50:04;;;;;;;3.03;1.80;;;;;;;;;;5115787;28;20026;-58
2021/09/05 11:52:32;;;;;;;14.17;3.87;;;;;;;;;;5108321;28;20114;-58
2021/09/05 11:55:00;;;;;;;5.43;2.53;;;;;;;;;;5089851;28;20532;-58
2021/09/05 11:57:28;;;;;;;18.50;2.20;;;;;;;;;;5090008;28;20070;-58
2021/09/05 11:59:55;;;;;;;5.67;2.10;;;;;;;;;;5089419;28;20036;-58
2021/09/05 12:02:38;;;;;;;4.07;2.00;;;;;;;;;;5093854;28;20081;-58
2021/09/05 12:05:06;;;;;;;5.53;1.77;;;;;;;;;;5094917;28;20028;-58
2021/09/05 12:07:37;;;;;;;4.43;1.97;;;;;;;;;;5103103;28;20412;-58
2021/09/05 12:10:13;;;;;;;3.00;1.73;;;;;;;;;;5115380;28;20019;-58
2021/09/05 12:12:40;;;;;;;3.10;2.03;;;;;;;;;;5115130;28;20027;-58
2021/09/05 12:15:26;;;;;;;7.20;2.53;;;;;;;;;;5110094;28;20046;-58
2021/09/05 12:17:53;;;;;;;5.97;2.38;;;;;;;;;;5110157;28;20071;-58
2021/09/05 12:20:21;;;;;;;4.90;2.00;;;;;;;;;;5110139;28;20036;-58
2021/09/05 12:22:48;;;;;;;4.40;2.13;;;;;;;;;;5091990;28;20028;-59
2021/09/05 12:25:20;;;;;;;5.93;2.60;;;;;;;;;;5094861;28;20099;-58
2021/09/05 12:27:56;;;;;;;7.43;2.80;;;;;;;;;;5107160;28;20085;-58
2021/09/05 12:30:25;;;;;;;4.33;2.30;;;;;;;;;;5114731;28;20022;-58
2021/09/05 12:33:03;;;;;;;7.90;2.87;;;;;;;;;;5114786;28;20023;-58
2021/09/05 12:35:31;;;;;;;6.10;2.33;;;;;;;;;;5113537;28;20382;-58
2021/09/05 12:38:23;;;;;;;6.33;2.00;;;;;;;;;;5109847;28;20028;-58
2021/09/05 12:40:50;;;;;;;6.00;2.03;;;;;;;;;;5085581;28;20064;-58
2021/09/05 12:43:17;;;;;;;18.30;4.90;;;;;;;;;;5089286;28;20094;-59
2021/09/05 12:45:53;;;;;;;4.77;2.27;;;;;;;;;;5090587;28;20483;-58
2021/09/05 12:48:21;;;;;;;4.80;2.27;;;;;;;;;;5073929;28;20032;-59
2021/09/05 12:50:58;;;;;;;4.97;2.47;;;;;;;;;;5073537;28;20054;-59
2021/09/05 12:53:25;;;;;;;5.50;2.20;;;;;;;;;;5074036;28;20020;-58
2021/09/05 12:55:52;;;;;;;4.83;2.20;;;;;;;;;;5074245;28;20384;-59
2021/09/05 12:58:18;;;;;;;4.40;2.50;;;;;;;;;;5081236;28;20115;-59
2021/09/05 13:00:45;;;;;;;7.53;2.50;;;;;;;;;;5095303;28;20106;-58
2021/09/05 13:03:12;;;;;;;5.53;3.17;;;;;;;;;;5088550;28;20470;-59
2021/09/05 13:05:38;;;;;;;6.27;3.17;;;;;;;;;;5088779;28;20464;-58
2021/09/05 13:08:05;;;;;;;5.17;2.73;;;;;;;;;;5090248;28;20426;-58
2021/09/05 13:10:36;;;;;;;6.80;2.53;;;;;;;;;;5094046;28;20035;-58
2021/09/05 13:13:04;;;;;;;6.77;2.97;;;;;;;;;;5093676;28;20081;-58
2021/09/05 13:15:31;;;;;;;5.20;2.10;;;;;;;;;;5093606;28;20024;-58
2021/09/05 13:17:58;;;;;;;6.03;2.53;;;;;;;;;;5093104;28;20023;-58
2021/09/05 13:20:25;;;;;;;5.67;2.00;;;;;;;;;;5091773;28;20124;-58
2021/09/05 13:22:51;;;;;;;3.93;2.13;;;;;;;;;;5088613;28;20093;-58
2021/09/05 13:25:18;;;;;;;3.97;1.80;;;;;;;;;;5088469;28;20043;-58
2021/09/05 13:27:45;;;;;;;5.07;2.13;;;;;;;;;;5088413;28;20027;-58
2021/09/05 13:30:12;;;;;;;6.77;2.60;;;;;;;;;;5089883;28;20024;-58
2021/09/05 13:32:38;;;;;;;7.60;2.30;;;;;;;;;;5095497;28;20492;-58
2021/09/05 13:35:05;;;;;;;5.50;2.73;;;;;;;;;;5100356;28;20115;-58
2021/09/05 13:37:32;;;;;;;4.97;2.57;;;;;;;;;;5093140;28;20485;-58
2021/09/05 13:39:59;;;;;;;7.13;2.37;;;;;;;;;;5092881;28;20040;-59
2021/09/05 13:42:25;;;;;;;3.30;2.00;;;;;;;;;;5091857;28;20074;-58
2021/09/05 13:44:52;;;;;;;3.60;2.07;;;;;;;;;;5088034;28;20024;-59
2021/09/05 13:47:19;;;;;;;4.27;2.10;;;;;;;;;;5088257;28;20030;-59
2021/09/05 13:49:47;;;;;;;3.80;2.30;;;;;;;;;;5087901;28;20550;-59
2021/09/05 13:52:14;;;;;;;3.43;2.00;;;;;;;;;;5088393;28;20489;-59
2021/09/05 13:54:41;;;;;;;6.87;2.60;;;;;;;;;;5095658;28;20034;-58
2021/09/05 13:57:09;;;;;;;4.77;1.80;;;;;;;;;;5092714;28;20039;-58
2021/09/05 13:59:35;;;;;;;6.20;2.37;;;;;;;;;;5092781;28;20115;-58
2021/09/05 14:02:02;;;;;;;3.83;2.20;;;;;;;;;;5092987;28;20034;-58
2021/09/05 14:04:29;;;;;;;4.00;2.13;;;;;;;;;;5091849;28;20039;-59
2021/09/05 14:06:55;;;;;;;5.73;3.50;;;;;;;;;;5087376;28;20024;-59
2021/09/05 14:09:22;;;;;;;5.77;2.83;;;;;;;;;;5087758;28;20046;-59
2021/09/05 14:11:49;;;;;;;7.50;2.87;;;;;;;;;;5092067;28;20100;-59
2021/09/05 14:14:15;;;;;;;6.00;3.40;;;;;;;;;;5095465;28;20541;-59
2021/09/05 14:16:42;;;;;;;4.73;2.57;;;;;;;;;;5092690;28;20074;-60
2021/09/05 14:19:08;;;;;;;4.87;2.70;;;;;;;;;;5092560;28;20016;-59
2021/09/05 14:21:35;;;;;;;8.90;3.30;;;;;;;;;;5092583;28;20069;-59
2021/09/05 14:24:02;;;;;;;5.10;3.00;;;;;;;;;;5091845;28;20374;-59
2021/09/05 14:26:28;;;;;;;4.27;2.60;;;;;;;;;;5092433;28;20484;-58
2021/09/05 14:29:01;;;;;;;4.07;2.40;;;;;;;;;;5087506;28;20028;-59
2021/09/05 14:31:49;;;;;;;4.47;2.63;;;;;;;;;;5067075;28;20029;-59
2021/09/05 14:34:40;;;;;;;5.53;2.80;;;;;;;;;;5066826;28;20029;-59
2021/09/05 14:48:11;;;;;;;5.20;2.97;;;;;;;;;;5071801;28;20036;-59
2021/09/05 14:55:52;;;;;;;4.70;1.70;;;;;;;;;;5098292;28;20035;-59
2021/09/05 14:58:18;;;;;;;4.10;2.07;;;;;;;;;;5107508;28;20031;-60
2021/09/05 15:00:49;;;;;;;4.70;2.10;;;;;;;;;;5112036;28;20031;-59